CYMH Weather Reports


Display with metric or nautical units.
time (UTC)temp
F
wind
direction
speed
MPH
gust
MPH
rain 1hr
in
rain 24hr
in
rain mn
in
humidity
%
barometer
mb
20200928212010 66 230 13.0 20.0 0.00 0.00 0.00 77 1008.0
20200928211010 66 230 13.0 20.0 0.00 0.00 0.00 77 1008.0
20200928210508 66 230 13.0 20.0 0.00 0.00 0.00 77 1008.0
20200928210014 66 230 13.0 20.0 0.00 0.00 0.00 77 1008.0
20200928205023 66 230 13.0 20.0 0.00 0.00 0.00 77 1008.0
20200928204009 66 230 13.0 20.0 0.00 0.00 0.00 77 1008.0
20200928203138 66 230 13.0 20.0 0.00 0.00 0.00 77 1008.0
20200928202509 66 230 13.0 20.0 0.00 0.00 0.00 77 1008.0
20200928201012 68 0 0.0 0.0 0.00 0.00 0.00 72 1008.0
20200928200036 68 220 14.0 24.0 0.00 0.00 0.00 72 1007.0
20200928195509 68 220 14.0 24.0 0.00 0.00 0.00 72 1007.0
20200928195140 68 220 14.0 24.0 0.00 0.00 0.00 72 1007.0
20200928194512 68 220 14.0 24.0 0.00 0.00 0.00 72 1007.0
20200928194011 68 220 14.0 24.0 0.00 0.00 0.00 72 1007.0
20200928193139 68 220 14.0 24.0 0.00 0.00 0.00 72 1007.0
20200928192008 68 220 14.0 24.0 0.00 0.00 0.00 72 1007.0
20200928191520 68 220 14.0 24.0 0.00 0.00 0.00 72 1007.0
20200928191018 68 220 14.0 24.0 0.00 0.00 0.00 72 1007.0
20200928190628 68 210 12.0 18.0 0.00 0.00 0.00 77 1007.0
20200928185523 68 210 12.0 18.0 0.00 0.00 0.00 77 1007.0
20200928185008 68 210 12.0 18.0 0.00 0.00 0.00 77 1007.0
20200928184518 68 210 12.0 18.0 0.00 0.00 0.00 77 1007.0
20200928184010 68 210 12.0 18.0 0.00 0.00 0.00 77 1007.0
20200928183250 68 210 12.0 18.0 0.00 0.00 0.00 77 1007.0
20200928182515 68 210 12.0 18.0 0.00 0.00 0.00 77 1007.0
20200928182010 68 210 12.0 18.0 0.00 0.00 0.00 77 1007.0
20200928181520 68 210 12.0 18.0 0.00 0.00 0.00 77 1007.0
20200928181018 68 210 12.0 18.0 0.00 0.00 0.00 77 1007.0
20200928175527 68 230 13.0 20.0 0.00 0.00 0.00 77 1007.0
20200928175137 68 230 13.0 20.0 0.00 0.00 0.00 77 1007.0
20200928174524 68 230 13.0 20.0 0.00 0.00 0.00 77 1007.0
20200928174255 68 230 13.0 20.0 0.00 0.00 0.00 77 1007.0
20200928173512 68 230 13.0 20.0 0.00 0.00 0.00 77 1007.0
20200928171510 68 230 13.0 20.0 0.00 0.00 0.00 77 1007.0
20200928171011 68 230 13.0 20.0 0.00 0.00 0.00 77 1007.0
20200928170509 64 240 10.0 20.0 0.00 0.00 0.00 82 1007.0
20200928165814 64 240 10.0 20.0 0.00 0.00 0.00 82 1007.0
20200928165140 64 240 10.0 20.0 0.00 0.00 0.00 82 1007.0
20200928164639 64 240 10.0 20.0 0.00 0.00 0.00 82 1007.0
20200928162538 64 240 10.0 20.0 0.00 0.00 0.00 82 1007.0
20200928160511 57 200 5.0 0.0 0.00 0.00 0.00 87 1007.0
20200928160152 57 200 5.0 0.0 0.00 0.00 0.00 87 1007.0
20200928155522 57 200 5.0 0.0 0.00 0.00 0.00 87 1007.0
20200928155011 57 200 5.0 0.0 0.00 0.00 0.00 87 1007.0
20200928154640 57 200 5.0 0.0 0.00 0.00 0.00 87 1007.0
20200928154547 57 200 5.0 0.0 0.00 0.00 0.00 87 1007.0
20200928153514 57 200 5.0 0.0 0.00 0.00 0.00 87 1007.0
20200928153019 57 200 5.0 0.0 0.00 0.00 0.00 87 1007.0
20200928152511 57 200 5.0 0.0 0.00 0.00 0.00 87 1007.0
20200928151516 57 200 5.0 0.0 0.00 0.00 0.00 87 1007.0
20200928150512 48 160 6.0 0.0 0.00 0.00 0.00 10 1008.0
20200928150150 48 160 6.0 0.0 0.00 0.00 0.00 10 1008.0
20200928145511 48 160 6.0 0.0 0.00 0.00 0.00 10 1008.0
20200928145009 48 160 6.0 0.0 0.00 0.00 0.00 10 1008.0
20200928144509 48 160 6.0 0.0 0.00 0.00 0.00 10 1008.0
20200928143638 48 160 6.0 0.0 0.00 0.00 0.00 10 1008.0
20200928143024 48 160 6.0 0.0 0.00 0.00 0.00 10 1008.0
20200928142627 48 160 6.0 0.0 0.00 0.00 0.00 10 1008.0
20200928142008 48 160 6.0 0.0 0.00 0.00 0.00 10 1008.0
20200928141637 48 160 6.0 0.0 0.00 0.00 0.00 10 1008.0
20200928141008 48 160 6.0 0.0 0.00 0.00 0.00 10 1008.0
20200928140507 44 170 5.0 0.0 0.00 0.00 0.00 10 1008.0
20200928135512 44 170 5.0 0.0 0.00 0.00 0.00 10 1008.0
20200928135009 44 170 5.0 0.0 0.00 0.00 0.00 10 1008.0
20200928134522 44 170 5.0 0.0 0.00 0.00 0.00 10 1008.0
20200928134140 44 170 5.0 0.0 0.00 0.00 0.00 10 1008.0
20200928132756 44 170 5.0 0.0 0.00 0.00 0.00 10 1008.0
20200928132012 44 170 5.0 0.0 0.00 0.00 0.00 10 1008.0
20200928131524 44 170 5.0 0.0 0.00 0.00 0.00 10 1008.0
20200928131015 44 170 5.0 0.0 0.00 0.00 0.00 10 1008.0
20200928130510 44 170 5.0 0.0 0.00 0.00 0.00 10 1008.0
20200928130052 44 170 7.0 0.0 0.00 0.00 0.00 10 1008.0
20200928125510 44 180 6.0 0.0 0.00 0.00 0.00 93 1008.0
20200928125008 42 160 9.0 0.0 0.00 0.00 0.00 10 1008.0
20200928124023 42 160 9.0 0.0 0.00 0.00 0.00 10 1008.0
20200928123511 42 160 9.0 0.0 0.00 0.00 0.00 10 1008.0
20200928122009 42 160 6.0 0.0 0.00 0.00 0.00 10 1009.0
20200928121515 42 140 5.0 0.0 0.00 0.00 0.00 10 1009.0
20200928121005 42 140 5.0 0.0 0.00 0.00 0.00 10 1009.0
20200928120803 42 140 5.0 0.0 0.00 0.00 0.00 10 1009.0
20200928120017 42 140 7.0 0.0 0.00 0.00 0.00 10 1009.0
20200928115010 42 140 7.0 0.0 0.00 0.00 0.00 10 1009.0
20200928114517 42 140 7.0 0.0 0.00 0.00 0.00 10 1009.0
20200928114027 42 140 7.0 0.0 0.00 0.00 0.00 10 1009.0
20200928113507 42 140 7.0 0.0 0.00 0.00 0.00 10 1009.0
20200928113255 42 140 7.0 0.0 0.00 0.00 0.00 10 1009.0
20200928112508 42 140 7.0 0.0 0.00 0.00 0.00 10 1009.0
20200928112011 42 140 7.0 0.0 0.00 0.00 0.00 10 1009.0
20200928111518 42 140 7.0 0.0 0.00 0.00 0.00 10 1009.0
20200928111335 42 160 2.0 0.0 0.00 0.00 0.00 10 1009.0
20200928110639 41 140 5.0 0.0 0.00 0.00 0.00 10 1009.0
20200928110144 41 140 5.0 0.0 0.00 0.00 0.00 10 1009.0
20200928105514 41 140 5.0 0.0 0.00 0.00 0.00 10 1009.0
20200928104019 41 140 5.0 0.0 0.00 0.00 0.00 10 1009.0
20200928103639 41 140 5.0 0.0 0.00 0.00 0.00 10 1009.0
20200928103139 41 140 5.0 0.0 0.00 0.00 0.00 10 1009.0
20200928102512 41 140 5.0 0.0 0.00 0.00 0.00 10 1009.0
20200928102011 41 140 5.0 0.0 0.00 0.00 0.00 10 1009.0
20200928101518 41 150 5.0 0.0 0.00 0.00 0.00 10 1010.0
20200928101017 41 150 5.0 0.0 0.00 0.00 0.00 10 1010.0
20200928100017 41 80 3.0 0.0 0.00 0.00 0.00 10 1010.0
20200928095509 41 80 3.0 0.0 0.00 0.00 0.00 10 1010.0
20200928093509 41 90 5.0 0.0 0.00 0.00 0.00 10 1010.0
20200928093024 41 90 5.0 0.0 0.00 0.00 0.00 10 1010.0
20200928092626 41 90 5.0 0.0 0.00 0.00 0.00 10 1010.0
20200928092010 41 90 5.0 0.0 0.00 0.00 0.00 10 1010.0
20200928091516 41 90 5.0 0.0 0.00 0.00 0.00 10 1010.0
20200928091014 41 90 5.0 0.0 0.00 0.00 0.00 10 1010.0
20200928090510 41 70 5.0 0.0 0.00 0.00 0.00 10 1010.0
20200928090105 41 70 5.0 0.0 0.00 0.00 0.00 10 1010.0
20200928085508 41 70 5.0 0.0 0.00 0.00 0.00 10 1010.0
20200928085009 41 70 5.0 0.0 0.00 0.00 0.00 10 1010.0
20200928083632 41 70 5.0 0.0 0.00 0.00 0.00 10 1010.0
20200928083148 41 70 5.0 0.0 0.00 0.00 0.00 10 1010.0
20200928082510 41 70 5.0 0.0 0.00 0.00 0.00 10 1010.0
20200928081546 41 70 5.0 0.0 0.00 0.00 0.00 10 1010.0
20200928081049 41 60 5.0 0.0 0.00 0.00 0.00 10 1010.0
20200928080514 41 80 2.0 0.0 0.00 0.00 0.00 10 1011.0
20200928080026 41 80 2.0 0.0 0.00 0.00 0.00 10 1011.0
20200928075514 41 80 2.0 0.0 0.00 0.00 0.00 10 1011.0
20200928075013 41 50 3.0 0.0 0.00 0.00 0.00 10 1011.0
20200928074520 41 50 3.0 0.0 0.00 0.00 0.00 10 1011.0
20200928074049 41 50 3.0 0.0 0.00 0.00 0.00 10 1011.0
20200928073512 41 50 3.0 0.0 0.00 0.00 0.00 10 1011.0
20200928073437 41 50 3.0 0.0 0.00 0.00 0.00 10 1011.0
20200928072634 41 10 3.0 0.0 0.00 0.00 0.00 10 1011.0
20200928072129 41 10 3.0 0.0 0.00 0.00 0.00 10 1011.0
20200928070510 41 50 3.0 0.0 0.00 0.00 0.00 10 1010.0
20200928070023 41 50 3.0 0.0 0.00 0.00 0.00 10 1010.0
20200928065516 41 50 3.0 0.0 0.00 0.00 0.00 10 1010.0
20200928065016 41 50 3.0 0.0 0.00 0.00 0.00 10 1010.0
20200928064512 41 50 5.0 0.0 0.00 0.00 0.00 10 1011.0
20200928064009 41 60 6.0 0.0 0.00 0.00 0.00 10 1010.0
20200928063637 41 50 6.0 0.0 0.00 0.00 0.00 10 1010.0
20200928063021 41 50 6.0 0.0 0.00 0.00 0.00 10 1010.0
20200928062008 41 50 6.0 0.0 0.00 0.00 0.00 10 1010.0
20200928061011 41 50 6.0 0.0 0.00 0.00 0.00 10 1010.0
20200928060304 42 50 5.0 0.0 0.00 0.00 0.00 93 1011.0
20200928055638 42 50 5.0 0.0 0.00 0.00 0.00 93 1011.0
20200928055140 42 50 5.0 0.0 0.00 0.00 0.00 93 1011.0
20200928054621 42 50 5.0 0.0 0.00 0.00 0.00 93 1011.0
20200928054019 42 50 5.0 0.0 0.00 0.00 0.00 93 1011.0
20200928053625 42 50 5.0 0.0 0.00 0.00 0.00 93 1011.0
20200928053134 42 50 5.0 0.0 0.00 0.00 0.00 93 1011.0
20200928052511 42 50 6.0 0.0 0.00 0.00 0.00 93 1011.0
20200928051639 42 30 7.0 0.0 0.00 0.00 0.00 93 1011.0
20200928051010 42 30 7.0 0.0 0.00 0.00 0.00 93 1011.0
20200928050022 42 30 9.0 0.0 0.00 0.00 0.00 93 1011.0
20200928045511 42 30 9.0 0.0 0.00 0.00 0.00 93 1011.0
20200928045010 42 40 9.0 0.0 0.00 0.00 0.00 93 1011.0
20200928044516 42 50 9.0 0.0 0.00 0.00 0.00 93 1011.0
20200928044133 42 50 8.0 0.0 0.00 0.00 0.00 93 1011.0
20200928043016 42 30 9.0 0.0 0.00 0.00 0.00 93 1011.0
20200928042509 42 40 8.0 0.0 0.00 0.00 0.00 10 1011.0
20200928042011 42 40 8.0 0.0 0.00 0.00 0.00 10 1011.0
20200928041519 42 40 8.0 0.0 0.00 0.00 0.00 10 1011.0
20200928041009 42 40 7.0 0.0 0.00 0.00 0.00 10 1011.0
20200928040631 42 40 7.0 0.0 0.00 0.00 0.00 10 1011.0
20200928040151 44 30 5.0 0.0 0.00 0.00 0.00 93 1012.0
20200928035515 44 110 3.0 0.0 0.00 0.00 0.00 93 1012.0
20200928035011 44 110 3.0 0.0 0.00 0.00 0.00 93 1012.0
20200928034010 44 100 5.0 0.0 0.00 0.00 0.00 93 1012.0
20200928033510 44 80 5.0 0.0 0.00 0.00 0.00 93 1012.0
20200928033258 44 80 5.0 0.0 0.00 0.00 0.00 93 1012.0
20200928032509 44 90 2.0 0.0 0.00 0.00 0.00 10 1011.0
20200928031519 44 90 2.0 0.0 0.00 0.00 0.00 10 1011.0
20200928030639 44 90 2.0 0.0 0.00 0.00 0.00 93 1011.0
20200928030142 44 90 2.0 0.0 0.00 0.00 0.00 93 1011.0
20200928025512 44 0 2.0 0.0 0.00 0.00 0.00 93 1012.0
20200928025015 44 0 2.0 0.0 0.00 0.00 0.00 93 1012.0
20200928024009 44 0 2.0 0.0 0.00 0.00 0.00 93 1012.0
20200928023448 44 80 3.0 0.0 0.00 0.00 0.00 93 1011.0
20200928022011 44 80 3.0 0.0 0.00 0.00 0.00 93 1011.0
20200928021142 44 80 3.0 0.0 0.00 0.00 0.00 93 1011.0
20200928015508 46 0 2.0 0.0 0.00 0.00 0.00 87 1011.0
20200928015020 46 0 2.0 0.0 0.00 0.00 0.00 87 1011.0
20200928014520 46 0 2.0 0.0 0.00 0.00 0.00 87 1011.0
20200928014010 46 0 2.0 0.0 0.00 0.00 0.00 87 1011.0
20200928013507 46 0 2.0 0.0 0.00 0.00 0.00 87 1011.0
20200928013411 46 0 2.0 0.0 0.00 0.00 0.00 87 1011.0
20200928012510 46 0 2.0 0.0 0.00 0.00 0.00 87 1011.0
20200928011626 46 0 2.0 0.0 0.00 0.00 0.00 87 1011.0
20200928011009 46 0 2.0 0.0 0.00 0.00 0.00 87 1011.0
20200928010023 44 80 7.0 0.0 0.00 0.00 0.00 93 1011.0
20200928005516 44 80 7.0 0.0 0.00 0.00 0.00 93 1011.0
20200928005124 44 80 7.0 0.0 0.00 0.00 0.00 93 1011.0
20200928004514 44 80 7.0 0.0 0.00 0.00 0.00 93 1011.0
20200928004019 44 80 7.0 0.0 0.00 0.00 0.00 93 1011.0
20200928003015 44 80 7.0 0.0 0.00 0.00 0.00 93 1011.0
20200928002508 44 80 7.0 0.0 0.00 0.00 0.00 93 1011.0
20200928002011 44 80 7.0 0.0 0.00 0.00 0.00 93 1011.0
20200928001530 44 80 7.0 0.0 0.00 0.00 0.00 93 1011.0
20200928001007 44 80 7.0 0.0 0.00 0.00 0.00 93 1011.0
20200928000024 46 80 13.0 18.0 0.00 0.00 0.00 93 1010.0
20200927235513 46 80 13.0 18.0 0.00 0.00 0.00 93 1010.0
20200927235248 46 80 13.0 18.0 0.00 0.00 0.00 93 1010.0
20200927234518 46 80 13.0 18.0 0.00 0.00 0.00 93 1010.0
20200927233514 46 80 13.0 18.0 0.00 0.00 0.00 93 1010.0
20200927233022 46 80 13.0 18.0 0.00 0.00 0.00 93 1010.0
20200927232012 46 80 13.0 18.0 0.00 0.00 0.00 93 1010.0
20200927231011 46 80 13.0 18.0 0.00 0.00 0.00 93 1010.0
20200927230508 53 80 16.0 0.0 0.00 0.00 0.00 76 1010.0
20200927230038 53 80 16.0 0.0 0.00 0.00 0.00 76 1010.0
20200927225008 53 80 16.0 0.0 0.00 0.00 0.00 76 1010.0
20200927223508 53 80 16.0 0.0 0.00 0.00 0.00 76 1010.0
20200927223138 53 80 16.0 0.0 0.00 0.00 0.00 76 1010.0
20200927222624 53 80 16.0 0.0 0.00 0.00 0.00 76 1010.0
20200927222009 53 80 16.0 0.0 0.00 0.00 0.00 76 1010.0
20200927221515 53 80 16.0 0.0 0.00 0.00 0.00 76 1010.0
20200927220507 57 0 2.0 0.0 0.00 0.00 0.00 76 1008.0
20200927220030 57 0 2.0 0.0 0.00 0.00 0.00 76 1008.0
20200927215510 57 0 2.0 0.0 0.00 0.00 0.00 76 1008.0
20200927214513 57 0 2.0 0.0 0.00 0.00 0.00 76 1008.0
20200927214144 57 0 2.0 0.0 0.00 0.00 0.00 76 1008.0